Time;durP1;ratioP1;P1;durP2;ratioP2;P2;SDS_P1;SDS_P2;PMS_P1;PMS_P2;Temp;Humidity;BMP_temperature;BMP_pressure;BME280_temperature;BME280_humidity;BME280_pressure;Samples;Min_cycle;Max_cycle;Signal;HPM_P1;HPM_P2
2023/12/08 00:02:11;;;;;;;15.33;11.13;;;;;;;-3.52;100.00;99654.16;5092250;28;20228;-80
2023/12/08 00:04:40;;;;;;;16.10;11.73;;;;;;;-3.53;100.00;99649.88;5084058;28;20260;-78
2023/12/08 00:07:06;;;;;;;15.47;11.60;;;;;;;-3.52;100.00;99647.13;5099091;28;20246;-79
2023/12/08 00:09:38;;;;;;;17.10;12.50;;;;;;;-3.59;100.00;99645.97;5095252;28;20192;-82
2023/12/08 00:12:05;;;;;;;17.63;13.07;;;;;;;-3.60;100.00;99642.56;5105754;28;20259;-79
2023/12/08 00:14:32;;;;;;;18.20;12.37;;;;;;;-3.60;100.00;99646.97;5094222;28;20216;-79
2023/12/08 00:17:04;;;;;;;16.27;12.77;;;;;;;-3.63;100.00;99637.56;5097891;28;20227;-80
2023/12/08 00:19:36;;;;;;;16.50;12.90;;;;;;;-3.67;100.00;99632.72;5093759;28;20643;-77
2023/12/08 00:22:04;;;;;;;13.80;11.23;;;;;;;-3.68;100.00;99637.13;5094358;28;20184;-77
2023/12/08 00:24:34;;;;;;;15.27;12.23;;;;;;;-3.70;100.00;99639.06;5100472;28;20661;-79
2023/12/08 00:27:01;;;;;;;16.47;12.07;;;;;;;-3.73;100.00;99639.28;5094655;28;20207;-79
2023/12/08 00:29:29;;;;;;;18.27;12.33;;;;;;;-3.76;100.00;99642.19;5092168;28;20196;-80
2023/12/08 00:31:57;;;;;;;14.67;12.20;;;;;;;-3.79;100.00;99646.84;5097476;28;20269;-79
2023/12/08 00:34:23;;;;;;;16.57;11.73;;;;;;;-3.79;100.00;99645.06;5093883;28;20275;-79
2023/12/08 00:36:53;;;;;;;15.43;11.50;;;;;;;-3.81;100.00;99649.59;5096894;28;20238;-79
2023/12/08 00:39:22;;;;;;;16.27;12.50;;;;;;;-3.81;100.00;99652.19;5103451;28;20202;-79
2023/12/08 00:41:49;;;;;;;14.43;10.93;;;;;;;-3.81;100.00;99648.75;5095319;28;20221;-80
2023/12/08 00:44:20;;;;;;;16.10;11.40;;;;;;;-3.81;100.00;99641.72;5111868;28;20202;-79
2023/12/08 00:46:50;;;;;;;13.73;10.93;;;;;;;-3.82;100.00;99639.22;5109029;28;20191;-83
2023/12/08 00:49:17;;;;;;;14.00;10.97;;;;;;;-3.82;100.00;99634.81;5105897;28;20203;-84
2023/12/08 00:51:46;;;;;;;13.60;10.60;;;;;;;-3.79;100.00;99628.53;5108353;28;20971;-80
2023/12/08 00:54:14;;;;;;;14.73;10.57;;;;;;;-3.80;100.00;99627.69;5106974;28;20245;-79
2023/12/08 00:56:40;;;;;;;14.33;10.63;;;;;;;-3.80;100.00;99637.31;5112820;28;20207;-81
2023/12/08 00:59:07;;;;;;;14.70;10.17;;;;;;;-3.85;100.00;99640.31;5113146;28;20278;-78
2023/12/08 01:01:34;;;;;;;13.87;10.43;;;;;;;-3.89;100.00;99627.63;5104875;28;20219;-80
2023/12/08 01:04:04;;;;;;;14.33;10.03;;;;;;;-3.89;100.00;99638.09;5114450;28;20199;-79
2023/12/08 01:06:33;;;;;;;13.67;9.93;;;;;;;-3.91;100.00;99634.75;5102044;28;20198;-79
2023/12/08 01:09:00;;;;;;;13.37;9.70;;;;;;;-3.90;100.00;99632.03;5090748;28;20204;-79
2023/12/08 01:11:28;;;;;;;12.73;10.03;;;;;;;-3.89;100.00;99631.06;5107884;28;20192;-78
2023/12/08 01:13:55;;;;;;;13.50;10.40;;;;;;;-3.91;100.00;99635.59;5103598;28;20214;-79
2023/12/08 01:16:22;;;;;;;14.60;10.37;;;;;;;-3.92;100.00;99638.34;5095200;28;20192;-77
2023/12/08 01:18:48;;;;;;;12.00;9.43;;;;;;;-3.90;100.00;99647.72;5106157;28;20177;-80
2023/12/08 01:21:15;;;;;;;14.27;10.63;;;;;;;-3.91;100.00;99640.00;5095027;28;20199;-79
2023/12/08 01:23:42;;;;;;;13.47;10.07;;;;;;;-3.94;100.00;99635.03;5103479;28;20200;-79
2023/12/08 01:26:09;;;;;;;14.63;10.33;;;;;;;-3.92;100.00;99626.09;5103575;28;20188;-81
2023/12/08 01:28:36;;;;;;;14.60;9.87;;;;;;;-3.94;100.00;99620.16;5101431;28;20194;-79
2023/12/08 01:31:03;;;;;;;11.83;9.17;;;;;;;-3.95;100.00;99623.72;5092107;28;20192;-78
2023/12/08 01:33:30;;;;;;;12.27;9.23;;;;;;;-3.94;100.00;99616.69;5097026;28;20192;-80
2023/12/08 01:36:02;;;;;;;12.63;9.80;;;;;;;-3.93;100.00;99613.13;5090051;28;20188;-78
2023/12/08 01:38:49;;;;;;;12.20;9.60;;;;;;;-3.94;100.00;99608.84;5082351;28;20714;-78
2023/12/08 01:41:22;;;;;;;12.13;8.80;;;;;;;-3.98;100.00;99608.28;5088428;28;20273;-80
2023/12/08 01:43:48;;;;;;;12.37;9.40;;;;;;;-4.04;100.00;99600.94;5092421;28;20283;-79
2023/12/08 01:46:16;;;;;;;11.80;9.27;;;;;;;-4.10;100.00;99590.97;5087435;28;20184;-81
2023/12/08 01:48:47;;;;;;;11.30;9.43;;;;;;;-4.15;100.00;99585.28;5081073;28;20196;-81
2023/12/08 01:51:18;;;;;;;10.70;8.80;;;;;;;-4.19;100.00;99582.09;5085810;28;20203;-81
2023/12/08 01:53:45;;;;;;;12.27;9.00;;;;;;;-4.29;100.00;99569.94;5094679;28;20238;-80
2023/12/08 01:56:12;;;;;;;13.20;9.50;;;;;;;-4.35;100.00;99562.59;5086199;28;20192;-83
2023/12/08 01:58:40;;;;;;;12.43;9.67;;;;;;;-4.40;100.00;99562.97;5091279;28;20200;-81
2023/12/08 02:01:07;;;;;;;12.83;9.87;;;;;;;-4.45;100.00;99567.75;5089558;28;20192;-80
2023/12/08 02:03:40;;;;;;;12.67;9.63;;;;;;;-4.46;100.00;99555.63;5083163;28;20195;-79
2023/12/08 02:06:07;;;;;;;13.23;10.77;;;;;;;-4.46;100.00;99555.63;5086562;28;20254;-80
2023/12/08 02:08:37;;;;;;;13.90;10.97;;;;;;;-4.51;100.00;99547.31;5088030;28;20199;-78
2023/12/08 02:11:04;;;;;;;12.27;9.80;;;;;;;-4.55;100.00;99545.91;5089534;28;20303;-78
2023/12/08 02:13:31;;;;;;;12.17;9.30;;;;;;;-4.62;100.00;99548.19;5092109;28;20273;-79
2023/12/08 02:16:11;;;;;;;11.83;10.03;;;;;;;-4.66;100.00;99541.56;5085929;28;20197;-78
2023/12/08 02:18:39;;;;;;;11.60;9.27;;;;;;;-4.72;100.00;99536.03;5090523;28;20218;-79
2023/12/08 02:21:08;;;;;;;12.43;8.90;;;;;;;-4.76;100.00;99545.91;5076785;28;20188;-78
2023/12/08 02:23:36;;;;;;;12.70;9.93;;;;;;;-4.77;100.00;99531.16;5090733;28;20274;-79
2023/12/08 02:26:05;;;;;;;12.23;9.60;;;;;;;-4.80;100.00;99530.56;5097167;28;20200;-77
2023/12/08 02:28:32;;;;;;;13.07;9.70;;;;;;;-4.85;100.00;99520.47;5100369;28;20271;-79
2023/12/08 02:31:02;;;;;;;12.37;9.40;;;;;;;-4.88;100.00;99523.34;5109284;28;20195;-78
2023/12/08 02:33:32;;;;;;;12.53;9.60;;;;;;;-4.94;100.00;99523.84;5108616;28;20188;-77
2023/12/08 02:36:01;;;;;;;11.23;9.07;;;;;;;-5.01;100.00;99517.47;5111151;28;20184;-78
2023/12/08 02:38:32;;;;;;;11.63;9.03;;;;;;;-5.08;100.00;99514.50;5097654;28;20203;-79
2023/12/08 02:40:59;;;;;;;12.30;9.30;;;;;;;-5.11;100.00;99513.94;5106590;28;20200;-79
2023/12/08 02:43:26;;;;;;;12.33;9.97;;;;;;;-5.12;100.00;99509.66;5110469;28;20197;-77
2023/12/08 02:45:55;;;;;;;13.97;10.10;;;;;;;-5.16;100.00;99508.25;5101225;28;20188;-80
2023/12/08 02:48:24;;;;;;;12.20;9.23;;;;;;;-5.19;100.00;99511.13;5106898;28;20190;-79
2023/12/08 02:50:52;;;;;;;12.70;9.93;;;;;;;-5.22;100.00;99514.78;5104424;28;20242;-79
2023/12/08 02:53:19;;;;;;;13.23;10.07;;;;;;;-5.22;100.00;99517.41;5094636;28;20232;-79
2023/12/08 02:55:49;;;;;;;12.00;9.23;;;;;;;-5.24;100.00;99519.31;5103882;28;20223;-78
2023/12/08 02:58:16;;;;;;;13.53;9.67;;;;;;;-5.26;100.00;99534.28;5107642;28;20336;-80
2023/12/08 03:00:42;;;;;;;13.47;9.97;;;;;;;-5.27;100.00;99532.59;5099713;28;20202;-78
2023/12/08 03:03:10;;;;;;;11.43;9.13;;;;;;;-5.32;100.00;99518.28;5104806;28;20203;-78
2023/12/08 03:05:47;;;;;;;12.47;9.67;;;;;;;-5.41;100.00;99522.41;5108548;28;20191;-77
2023/12/08 03:08:14;;;;;;;12.97;9.50;;;;;;;-5.43;100.00;99522.56;5110673;28;20203;-78
2023/12/08 03:10:41;;;;;;;12.57;8.83;;;;;;;-5.47;100.00;99515.09;5101790;28;20188;-78
2023/12/08 03:13:08;;;;;;;14.13;9.97;;;;;;;-5.49;100.00;99517.81;5089445;28;20216;-78
2023/12/08 03:15:36;;;;;;;12.87;9.80;;;;;;;-5.53;100.00;99511.19;5098741;28;20250;-79
2023/12/08 03:18:03;;;;;;;13.13;9.63;;;;;;;-5.51;100.00;99513.69;5103618;28;20188;-79
2023/12/08 03:20:30;;;;;;;15.00;10.47;;;;;;;-5.53;100.00;99512.97;5102396;28;20213;-79
2023/12/08 03:22:57;;;;;;;14.13;9.93;;;;;;;-5.53;100.00;99515.56;5100271;28;20195;-78
2023/12/08 03:25:24;;;;;;;12.80;10.13;;;;;;;-5.58;100.00;99517.72;5095216;28;20192;-81
2023/12/08 03:27:53;;;;;;;12.73;10.20;;;;;;;-5.62;100.00;99518.91;5090158;28;20257;-78
2023/12/08 03:30:21;;;;;;;15.07;10.60;;;;;;;-5.67;100.00;99518.44;5091180;28;20197;-79
2023/12/08 03:32:48;;;;;;;15.17;11.43;;;;;;;-5.68;100.00;99507.16;5093806;28;20271;-79
2023/12/08 03:35:15;;;;;;;15.37;10.93;;;;;;;-5.69;100.00;99510.72;5095654;28;20239;-77
2023/12/08 03:37:44;;;;;;;14.90;10.30;;;;;;;-5.68;100.00;99511.53;5092751;28;20241;-78
2023/12/08 03:40:11;;;;;;;17.67;11.57;;;;;;;-5.71;100.00;99496.13;5095471;28;20188;-78
2023/12/08 03:42:41;;;;;;;13.93;10.67;;;;;;;-5.74;100.00;99496.38;5097837;28;20195;-78
2023/12/08 03:45:08;;;;;;;16.23;10.63;;;;;;;-5.78;100.00;99501.81;5098150;28;20586;-81
2023/12/08 03:47:36;;;;;;;15.17;11.13;;;;;;;-5.75;100.00;99503.38;5098249;28;20678;-78
2023/12/08 03:50:04;;;;;;;15.83;10.60;;;;;;;-5.79;100.00;99497.59;5098440;28;20188;-78
2023/12/08 03:52:35;;;;;;;13.20;10.03;;;;;;;-5.77;100.00;99502.66;5080887;28;20737;-78
2023/12/08 03:55:02;;;;;;;14.60;10.43;;;;;;;-5.80;100.00;99500.31;5095851;28;20223;-79
2023/12/08 03:57:31;;;;;;;14.43;10.00;;;;;;;-5.80;100.00;99490.69;5092440;28;20196;-79
2023/12/08 03:59:57;;;;;;;15.27;10.90;;;;;;;-5.82;100.00;99486.53;5101897;28;20184;-77
2023/12/08 04:02:24;;;;;;;16.00;10.27;;;;;;;-5.85;100.00;99478.94;5097240;28;20191;-81
2023/12/08 04:04:56;;;;;;;13.53;10.00;;;;;;;-5.84;100.00;99478.84;5097665;28;20203;-79
2023/12/08 04:07:23;;;;;;;13.07;10.43;;;;;;;-5.82;100.00;99482.13;5092603;28;20224;-79
2023/12/08 04:09:50;;;;;;;15.10;10.47;;;;;;;-5.86;100.00;99470.28;5106486;28;20188;-78
2023/12/08 04:12:17;;;;;;;15.97;10.23;;;;;;;-5.86;100.00;99469.47;5085854;28;20227;-78
2023/12/08 04:14:44;;;;;;;12.93;9.80;;;;;;;-5.92;100.00;99460.34;5101371;27;20215;-79
2023/12/08 04:17:11;;;;;;;14.07;10.07;;;;;;;-5.95;100.00;99458.00;5106444;28;20191;-78
2023/12/08 04:19:38;;;;;;;15.03;10.00;;;;;;;-5.96;100.00;99451.13;5101457;28;20646;-77
2023/12/08 04:22:05;;;;;;;13.00;9.80;;;;;;;-5.97;100.00;99453.88;5103750;28;20667;-76
2023/12/08 04:24:32;;;;;;;15.03;10.53;;;;;;;-6.00;100.00;99446.25;5106537;28;20191;-77
2023/12/08 04:26:58;;;;;;;13.20;10.20;;;;;;;-6.00;100.00;99449.69;5107914;28;20188;-78
2023/12/08 04:29:26;;;;;;;13.97;10.20;;;;;;;-6.02;100.00;99448.97;5105286;27;20190;-77
2023/12/08 04:31:55;;;;;;;14.53;10.33;;;;;;;-6.01;100.00;99441.97;5103151;28;20264;-80
2023/12/08 04:34:24;;;;;;;15.87;10.50;;;;;;;-6.00;100.00;99443.66;5111722;28;20230;-78
2023/12/08 04:36:51;;;;;;;15.20;11.43;;;;;;;-5.98;100.00;99444.38;5099942;28;20188;-77
2023/12/08 04:39:20;;;;;;;15.77;10.90;;;;;;;-5.94;100.00;99441.41;5102549;28;20216;-78
2023/12/08 04:41:47;;;;;;;16.87;11.70;;;;;;;-5.93;100.00;99437.00;5099444;28;20186;-80
2023/12/08 04:44:17;;;;;;;15.77;10.83;;;;;;;-5.94;100.00;99438.78;5100257;28;20188;-78
2023/12/08 04:46:43;;;;;;;16.47;11.50;;;;;;;-5.92;100.00;99434.25;5099574;28;20188;-77
2023/12/08 04:49:10;;;;;;;16.47;11.80;;;;;;;-5.88;100.00;99446.13;5101506;28;20233;-78
2023/12/08 04:51:41;;;;;;;14.97;11.47;;;;;;;-5.86;100.00;99441.59;5101917;28;20196;-78
2023/12/08 04:54:08;;;;;;;17.00;12.07;;;;;;;-5.83;100.00;99436.13;5110610;27;20269;-77
2023/12/08 04:56:35;;;;;;;18.93;13.60;;;;;;;-5.81;100.00;99436.00;5103872;28;20196;-77
2023/12/08 04:59:02;;;;;;;23.50;15.40;;;;;;;-5.78;100.00;99427.94;5101217;28;20184;-78
2023/12/08 05:01:32;;;;;;;20.77;13.90;;;;;;;-5.78;100.00;99418.31;5107468;28;20207;-78
2023/12/08 05:04:07;;;;;;;16.13;11.37;;;;;;;-5.79;100.00;99402.81;5082636;28;20188;-77
2023/12/08 05:06:37;;;;;;;16.97;12.43;;;;;;;-5.83;100.00;99398.75;5109250;28;20222;-77
2023/12/08 05:09:06;;;;;;;17.10;12.20;;;;;;;-5.89;100.00;99394.06;5101102;28;20227;-77
2023/12/08 05:11:34;;;;;;;15.83;12.23;;;;;;;-5.96;100.00;99391.13;5099334;28;20266;-78
2023/12/08 05:14:02;;;;;;;17.30;12.17;;;;;;;-5.99;100.00;99380.94;5104731;27;20656;-78
2023/12/08 05:16:29;;;;;;;15.93;12.13;;;;;;;-5.99;100.00;99367.88;5105650;28;20245;-79
2023/12/08 05:19:01;;;;;;;15.80;12.03;;;;;;;-6.04;100.00;99361.38;5112990;28;20202;-77
2023/12/08 05:21:28;;;;;;;17.03;11.20;;;;;;;-6.08;100.00;99373.00;5108725;27;20249;-77
2023/12/08 05:23:55;;;;;;;14.07;10.47;;;;;;;-6.05;100.00;99370.13;5079573;28;20200;-77
2023/12/08 05:26:23;;;;;;;14.43;10.60;;;;;;;-6.11;100.00;99383.69;5102004;28;20271;-78
2023/12/08 05:28:50;;;;;;;14.87;10.93;;;;;;;-6.09;100.00;99393.03;5092327;28;20199;-79
2023/12/08 05:31:18;;;;;;;15.73;10.67;;;;;;;-6.07;100.00;99409.41;5102302;28;20200;-78
2023/12/08 05:33:50;;;;;;;13.53;10.30;;;;;;;-6.06;100.00;99429.31;5104340;28;20616;-79
2023/12/08 05:36:34;;;;;;;13.83;9.37;;;;;;;-6.00;100.00;99433.22;5106698;28;20379;-78
2023/12/08 05:39:02;;;;;;;10.90;8.50;;;;;;;-6.02;100.00;99415.06;5109664;28;20238;-79
2023/12/08 05:41:32;;;;;;;12.60;9.60;;;;;;;-6.03;100.00;99416.03;5112387;28;20664;-77
2023/12/08 05:43:59;;;;;;;12.07;9.23;;;;;;;-6.02;100.00;99425.50;5114885;28;20179;-77
2023/12/08 05:46:25;;;;;;;11.77;8.83;;;;;;;-6.04;100.00;99427.41;5114767;28;20357;-80
2023/12/08 05:48:53;;;;;;;11.47;8.90;;;;;;;-6.05;100.00;99411.88;5103927;28;20196;-77
2023/12/08 05:51:26;;;;;;;11.27;8.80;;;;;;;-6.08;100.00;99407.75;5091556;28;20196;-79
2023/12/08 05:53:53;;;;;;;15.80;9.77;;;;;;;-6.11;100.00;99409.75;5097898;28;20228;-78
2023/12/08 05:56:22;;;;;;;12.90;9.23;;;;;;;-6.17;100.00;99402.41;5113147;28;20219;-79
2023/12/08 05:58:49;;;;;;;11.83;9.60;;;;;;;-6.21;100.00;99401.00;5114779;28;20200;-78
2023/12/08 06:01:16;;;;;;;12.83;9.17;;;;;;;-6.30;100.00;99402.53;5104720;28;20196;-79
2023/12/08 06:03:43;;;;;;;13.40;8.90;;;;;;;-6.38;100.00;99405.72;5096536;28;20682;-77
2023/12/08 06:06:15;;;;;;;12.97;9.13;;;;;;;-6.37;100.00;99403.94;5106221;28;20209;-77
2023/12/08 06:08:45;;;;;;;11.43;8.70;;;;;;;-6.43;100.00;99402.63;5100048;28;20207;-78
2023/12/08 06:11:14;;;;;;;13.40;9.00;;;;;;;-6.42;100.00;99406.91;5093691;28;20192;-78
2023/12/08 06:13:41;;;;;;;12.87;9.30;;;;;;;-6.47;100.00;99409.03;5095732;28;20208;-78
2023/12/08 06:16:13;;;;;;;14.37;9.83;;;;;;;-6.47;100.00;99403.00;5084242;28;20216;-77
2023/12/08 06:18:40;;;;;;;12.43;9.63;;;;;;;-6.49;100.00;99405.75;5101246;28;20195;-77
2023/12/08 06:21:08;;;;;;;13.77;10.60;;;;;;;-6.42;100.00;99408.69;5085123;28;20257;-76
2023/12/08 06:23:40;;;;;;;16.00;9.90;;;;;;;-6.40;100.00;99406.81;5094768;28;20192;-78
2023/12/08 06:26:09;;;;;;;13.37;9.80;;;;;;;-6.41;100.00;99405.97;5090299;28;20200;-78
2023/12/08 06:28:35;;;;;;;13.37;9.50;;;;;;;-6.32;100.00;99420.91;5087355;28;20192;-77
2023/12/08 06:31:02;;;;;;;11.20;8.37;;;;;;;-6.18;100.00;99421.59;5087912;28;20294;-77
2023/12/08 06:33:29;;;;;;;10.80;8.50;;;;;;;-5.96;100.00;99411.97;5089763;28;20196;-77
2023/12/08 06:35:58;;;;;;;10.17;7.90;;;;;;;-5.65;100.00;99407.75;5092336;28;20264;-78
2023/12/08 06:38:26;;;;;;;11.40;8.07;;;;;;;-5.44;100.00;99406.00;5109073;28;20187;-78
2023/12/08 06:40:53;;;;;;;12.53;9.00;;;;;;;-5.20;100.00;99408.41;5105119;28;20192;-77
2023/12/08 06:43:21;;;;;;;12.60;9.20;;;;;;;-4.98;100.00;99399.63;5101816;28;20697;-79
2023/12/08 06:45:50;;;;;;;14.97;10.20;;;;;;;-4.79;100.00;99401.56;5099042;28;20236;-77
2023/12/08 06:48:21;;;;;;;16.03;9.80;;;;;;;-4.67;100.00;99413.63;5095305;28;20196;-77
2023/12/08 06:50:49;;;;;;;15.10;10.00;;;;;;;-4.61;100.00;99418.31;5104930;28;20203;-80
2023/12/08 06:53:17;;;;;;;13.77;10.23;;;;;;;-4.53;100.00;99418.50;5101849;28;20233;-79
2023/12/08 06:55:47;;;;;;;13.43;10.37;;;;;;;-4.41;100.00;99419.25;5096092;28;20212;-79
2023/12/08 06:58:15;;;;;;;17.57;11.40;;;;;;;-4.25;100.00;99415.22;5088366;28;20315;-77
2023/12/08 07:00:44;;;;;;;15.67;11.93;;;;;;;-4.06;100.00;99417.88;5100385;28;20660;-77
2023/12/08 07:03:13;;;;;;;23.43;15.97;;;;;;;-3.88;100.00;99412.03;5098279;28;20184;-78
2023/12/08 07:05:40;;;;;;;20.07;14.50;;;;;;;-3.70;100.00;99399.94;5098334;28;20190;-80
2023/12/08 07:08:08;;;;;;;19.13;12.80;;;;;;;-3.55;100.00;99398.59;5097067;28;20246;-79
2023/12/08 07:10:37;;;;;;;19.20;12.60;;;;;;;-3.39;100.00;99400.66;5107781;28;20191;-79
2023/12/08 07:13:04;;;;;;;18.83;13.17;;;;;;;-3.13;100.00;99401.81;5097215;28;20218;-77
2023/12/08 07:15:31;;;;;;;14.37;11.10;;;;;;;-2.95;100.00;99394.91;5086199;28;20215;-80
2023/12/08 07:18:01;;;;;;;13.80;10.43;;;;;;;-2.77;100.00;99395.81;5108348;28;20194;-80
2023/12/08 07:20:29;;;;;;;12.77;10.23;;;;;;;-2.61;100.00;99386.56;5109193;28;20196;-78
2023/12/08 07:22:58;;;;;;;15.00;11.70;;;;;;;-2.49;100.00;99385.41;5096892;28;20248;-79
2023/12/08 07:25:24;;;;;;;13.77;11.00;;;;;;;-2.40;100.00;99385.38;5102757;28;20192;-80
2023/12/08 07:27:53;;;;;;;16.57;12.57;;;;;;;-2.32;100.00;99382.03;5103952;28;20216;-78
2023/12/08 07:30:19;;;;;;;14.07;11.40;;;;;;;-2.23;100.00;99375.91;5102051;28;20200;-78
2023/12/08 07:32:48;;;;;;;14.63;10.87;;;;;;;-2.16;100.00;99384.03;5096714;28;20196;-78
2023/12/08 07:35:17;;;;;;;12.97;9.87;;;;;;;-2.11;100.00;99379.19;5088225;28;20222;-79
2023/12/08 07:37:44;;;;;;;15.30;12.27;;;;;;;-2.05;100.00;99389.13;5101057;28;20195;-79
2023/12/08 07:40:11;;;;;;;12.23;10.50;;;;;;;-1.98;100.00;99375.25;5100849;28;20223;-78
2023/12/08 07:42:43;;;;;;;11.27;9.23;;;;;;;-1.87;100.00;99376.88;5100060;28;20219;-77
2023/12/08 07:45:10;;;;;;;11.70;8.70;;;;;;;-1.80;100.00;99368.25;5100234;28;20196;-78
2023/12/08 07:47:40;;;;;;;10.70;8.50;;;;;;;-1.70;100.00;99362.94;5096697;28;20203;-77
2023/12/08 07:50:07;;;;;;;11.03;9.10;;;;;;;-1.58;100.00;99374.88;5085490;28;20549;-79
2023/12/08 07:52:34;;;;;;;11.63;8.93;;;;;;;-1.45;100.00;99374.53;5103042;28;20250;-79
2023/12/08 07:55:01;;;;;;;11.00;8.53;;;;;;;-1.34;100.00;99367.22;5099024;28;20184;-80
2023/12/08 07:57:28;;;;;;;12.37;8.87;;;;;;;-1.22;100.00;99369.63;5101356;28;20188;-81
2023/12/08 07:59:55;;;;;;;11.70;9.27;;;;;;;-1.19;100.00;99378.03;5103710;28;20196;-80
2023/12/08 08:02:22;;;;;;;11.43;9.13;;;;;;;-1.11;100.00;99375.47;5096696;28;20219;-78
2023/12/08 08:04:49;;;;;;;12.30;10.03;;;;;;;-1.01;100.00;99370.13;5097993;28;20224;-79
2023/12/08 08:07:16;;;;;;;10.67;9.20;;;;;;;-0.90;100.00;99369.91;5103874;28;20203;-79
2023/12/08 08:09:43;;;;;;;13.00;9.87;;;;;;;-0.78;100.00;99359.94;5099578;28;20233;-78
2023/12/08 08:12:10;;;;;;;11.73;9.60;;;;;;;-0.66;100.00;99364.81;5093355;28;20214;-79
2023/12/08 08:14:38;;;;;;;15.63;11.27;;;;;;;-0.51;100.00;99357.16;5096551;28;20199;-78
2023/12/08 08:17:05;;;;;;;13.63;10.00;;;;;;;-0.46;100.00;99360.16;5104132;28;20223;-81
2023/12/08 08:19:32;;;;;;;12.50;10.80;;;;;;;-0.32;100.00;99348.22;5103820;28;20188;-79
2023/12/08 08:21:59;;;;;;;13.13;10.17;;;;;;;-0.30;100.00;99344.47;5093428;28;20192;-78
2023/12/08 08:24:46;;;;;;;11.40;10.20;;;;;;;-0.25;100.00;99346.63;5096497;28;20293;-80
2023/12/08 08:27:13;;;;;;;13.53;10.57;;;;;;;-0.24;100.00;99348.28;5097291;28;20267;-80
2023/12/08 08:29:40;;;;;;;11.83;9.47;;;;;;;-0.22;100.00;99354.19;5097270;28;20218;-80
2023/12/08 08:32:06;;;;;;;13.00;10.50;;;;;;;-0.14;100.00;99341.88;5097468;28;20211;-80
2023/12/08 08:34:33;;;;;;;11.83;9.60;;;;;;;-0.09;100.00;99339.59;5091527;28;20189;-79
2023/12/08 08:37:00;;;;;;;11.20;10.00;;;;;;;0.06;100.00;99349.53;5085043;28;20223;-80
2023/12/08 08:39:27;;;;;;;12.33;9.83;;;;;;;0.05;100.00;99346.06;5094461;28;20196;-80
2023/12/08 08:41:55;;;;;;;10.93;9.77;;;;;;;0.10;100.00;99342.94;5091550;28;20195;-82
2023/12/08 08:44:22;;;;;;;12.77;10.40;;;;;;;0.16;100.00;99351.06;5090303;28;20196;-79
2023/12/08 08:46:49;;;;;;;12.60;9.57;;;;;;;0.06;100.00;99353.00;5095764;28;20203;-80
2023/12/08 08:49:16;;;;;;;14.80;10.57;;;;;;;0.25;100.00;99350.09;5091573;28;20201;-82
2023/12/08 08:51:44;;;;;;;11.73;9.93;;;;;;;0.30;100.00;99347.78;5089919;28;20261;-79
2023/12/08 08:54:10;;;;;;;13.13;10.60;;;;;;;0.39;100.00;99341.56;5092889;28;20204;-79
2023/12/08 08:56:38;;;;;;;13.30;10.60;;;;;;;0.50;100.00;99337.81;5098544;28;20223;-79
2023/12/08 08:59:06;;;;;;;11.63;10.33;;;;;;;0.53;100.00;99337.47;5095123;28;20242;-79
2023/12/08 09:01:32;;;;;;;12.93;10.50;;;;;;;0.44;100.00;99333.16;5101010;28;20203;-79
2023/12/08 09:03:59;;;;;;;13.73;10.87;;;;;;;0.53;100.00;99342.72;5104827;28;20188;-78
2023/12/08 09:06:26;;;;;;;13.10;11.07;;;;;;;0.54;100.00;99331.22;5097713;28;20211;-83
2023/12/08 09:08:53;;;;;;;17.97;13.23;;;;;;;0.60;100.00;99338.47;5099148;28;20668;-79
2023/12/08 09:11:20;;;;;;;16.50;12.83;;;;;;;0.73;100.00;99322.16;5101190;28;20274;-78
2023/12/08 09:13:47;;;;;;;16.30;13.03;;;;;;;0.71;100.00;99318.84;5105468;28;20269;-82
2023/12/08 09:16:14;;;;;;;15.10;12.47;;;;;;;0.76;100.00;99314.75;5076329;28;20208;-78
2023/12/08 09:18:41;;;;;;;13.73;11.50;;;;;;;0.75;100.00;99310.44;5099781;28;20193;-79
2023/12/08 09:21:08;;;;;;;12.87;11.30;;;;;;;0.73;100.00;99314.25;5096416;28;20292;-78
2023/12/08 09:23:34;;;;;;;13.60;11.13;;;;;;;0.72;100.00;99300.25;5094714;28;20198;-78
2023/12/08 09:26:01;;;;;;;14.90;12.80;;;;;;;0.66;100.00;99298.25;5096041;28;20192;-78
2023/12/08 09:28:28;;;;;;;14.60;12.27;;;;;;;0.60;100.00;99284.91;5096139;28;20192;-81
2023/12/08 09:30:55;;;;;;;13.33;11.63;;;;;;;0.63;100.00;99295.97;5094731;28;20201;-78
2023/12/08 09:33:22;;;;;;;14.37;12.27;;;;;;;0.59;100.00;99291.19;5097663;28;20238;-78
2023/12/08 09:35:55;;;;;;;16.70;12.47;;;;;;;0.58;100.00;99277.16;5090980;28;20204;-77
2023/12/08 09:38:22;;;;;;;14.60;12.57;;;;;;;0.59;100.00;99275.34;5094686;28;20219;-79
2023/12/08 09:41:01;;;;;;;16.30;11.97;;;;;;;0.56;100.00;99275.69;5093881;28;20720;-77
2023/12/08 09:44:03;;;;;;;16.10;12.70;;;;;;;0.58;100.00;99274.53;5095857;28;20295;-78
2023/12/08 09:46:30;;;;;;;14.57;12.00;;;;;;;0.64;100.00;99273.06;5087287;28;20688;-77
2023/12/08 09:49:00;;;;;;;14.73;12.23;;;;;;;0.72;100.00;99271.22;5094050;28;20191;-77
2023/12/08 09:51:28;;;;;;;14.67;12.53;;;;;;;0.66;100.00;99266.63;5092930;28;20188;-79
2023/12/08 09:53:55;;;;;;;15.10;12.73;;;;;;;0.80;100.00;99271.22;5092568;28;20311;-78
2023/12/08 09:56:23;;;;;;;15.83;12.43;;;;;;;0.72;100.00;99257.22;5095916;28;20230;-77
2023/12/08 09:58:50;;;;;;;15.30;13.03;;;;;;;0.74;100.00;99255.25;5114185;28;20187;-77
2023/12/08 10:01:17;;;;;;;16.00;12.40;;;;;;;0.89;100.00;99254.41;5104866;28;20193;-80
2023/12/08 10:03:44;;;;;;;16.63;13.63;;;;;;;0.86;100.00;99244.19;5110338;28;20205;-77
2023/12/08 10:06:12;;;;;;;17.73;13.67;;;;;;;0.92;100.00;99247.16;5111424;28;20207;-79
2023/12/08 10:08:39;;;;;;;16.83;13.47;;;;;;;0.93;100.00;99240.91;5108935;28;20195;-78
2023/12/08 10:11:06;;;;;;;16.13;13.23;;;;;;;0.99;100.00;99234.94;5103450;28;20206;-79
2023/12/08 10:13:33;;;;;;;18.83;14.67;;;;;;;0.97;100.00;99231.66;5097214;28;20213;-77
2023/12/08 10:16:00;;;;;;;17.53;14.03;;;;;;;0.91;100.00;99232.31;5100172;28;20211;-77
2023/12/08 10:18:28;;;;;;;17.67;14.50;;;;;;;0.98;100.00;99228.81;5100671;28;20203;-78
2023/12/08 10:21:14;;;;;;;17.50;13.90;;;;;;;1.05;100.00;99221.06;5092725;28;20224;-77
2023/12/08 10:23:43;;;;;;;15.63;13.63;;;;;;;1.06;100.00;99226.19;5093538;28;20188;-79
2023/12/08 10:26:12;;;;;;;18.00;14.97;;;;;;;1.07;100.00;99216.47;5107094;28;20223;-79
2023/12/08 10:28:39;;;;;;;16.50;14.13;;;;;;;1.19;100.00;99226.47;5067890;28;20284;-79
2023/12/08 10:31:06;;;;;;;18.10;14.30;;;;;;;1.29;100.00;99216.56;5071339;28;20195;-78
2023/12/08 10:33:33;;;;;;;17.53;14.27;;;;;;;1.32;100.00;99213.56;5083952;28;20189;-79
2023/12/08 10:36:00;;;;;;;18.53;14.90;;;;;;;1.43;100.00;99214.19;5072160;28;20203;-78
2023/12/08 10:38:28;;;;;;;17.97;14.43;;;;;;;1.41;100.00;99217.00;5080444;28;20283;-77
2023/12/08 10:40:55;;;;;;;17.60;14.47;;;;;;;1.45;100.00;99222.75;5073288;28;20645;-78
2023/12/08 10:43:25;;;;;;;19.00;14.73;;;;;;;1.39;100.00;99213.72;5078665;28;20199;-78
2023/12/08 10:45:53;;;;;;;16.40;13.90;;;;;;;1.46;100.00;99216.47;5085011;28;20193;-79
2023/12/08 10:48:21;;;;;;;16.33;13.93;;;;;;;1.48;100.00;99210.03;5083795;28;20196;-78
2023/12/08 10:50:51;;;;;;;20.07;15.97;;;;;;;1.53;100.00;99212.16;5087618;28;20644;-81
2023/12/08 10:53:19;;;;;;;19.57;15.97;;;;;;;1.56;100.00;99195.97;5094064;28;20247;-79
2023/12/08 10:56:07;;;;;;;18.87;15.27;;;;;;;1.58;100.00;99194.00;5100976;28;20183;-79
2023/12/08 10:58:40;;;;;;;19.30;15.30;;;;;;;1.59;100.00;99183.25;5079770;28;20212;-78
2023/12/08 11:01:14;;;;;;;18.60;15.27;;;;;;;1.57;100.00;99177.34;5097240;28;20197;-79
2023/12/08 11:03:44;;;;;;;20.83;15.93;;;;;;;1.57;100.00;99173.88;5100358;28;20198;-79
2023/12/08 11:06:28;;;;;;;20.23;16.47;;;;;;;1.56;100.00;99170.41;5092253;28;20253;-78
2023/12/08 11:09:00;;;;;;;20.33;16.23;;;;;;;1.61;100.00;99180.44;5104096;28;20236;-79
2023/12/08 11:11:29;;;;;;;20.73;16.23;;;;;;;1.64;100.00;99172.97;5083953;28;20352;-77
2023/12/08 11:14:09;;;;;;;31.93;21.57;;;;;;;1.62;100.00;99180.28;5100035;28;20187;-78
2023/12/08 11:16:58;;;;;;;40.73;25.47;;;;;;;1.60;100.00;99173.50;5111950;28;20215;-80
2023/12/08 11:19:26;;;;;;;35.63;23.23;;;;;;;1.57;100.00;99172.03;5093007;28;20272;-78
2023/12/08 11:21:56;;;;;;;24.90;17.53;;;;;;;1.56;100.00;99172.22;5104548;28;20191;-79